»·PEaware :: N524CB KEUG-KCVO

N524CB :: KEUG-KCVO

FLIGHT INFORMATION

Flight Status: Arrived
Operator: Privately registered:
United States
More flights under this callsign
Pilot: Brian P. (19994)
Aircraft: CESSNA 172 SKYHAWK
(C172)
More flights by this aircraft type
Origin: KEUG Mahlon Sweet
United States
Destination: KCVO Corvallis Mun
United States
More flights between these airports :: More routes between these airports
Route: CVO
File this flight plan on PilotEdge
Remarks:
Altitude:
(Current/Filed)
2,500ft
Speed:
(Current/Filed)
130kts
Departed: 08-Aug-18 07:26 PM
Arrived: 08-Aug-18 07:52 PM
Distance/Time
Traveled:
23nm/0:26
Distance/Time
To Go:
Arrived

Flight Plot

Page will automatically refresh every two minutes.

Flight plan parsing failed; only flown route is shown


Map Options




Map Legend


Flown Route
Filed Route
Departure Airport
Arrival Airport
Navaid (VOR, NDB)
Fix

Horizontal Profiles

Position Reports

Time Latitude Longitude Heading Altitude Ground
Speed
08-Aug-18 18:56 44.115115 -123.214949 179 364ft 0kts
08-Aug-18 18:57 44.115115 -123.214949 179 364ft 0kts
08-Aug-18 18:58 44.115115 -123.214949 179 364ft 0kts
08-Aug-18 18:59 44.115115 -123.214949 179 364ft 0kts
08-Aug-18 19:00 44.115115 -123.214949 179 364ft 0kts
08-Aug-18 19:01 44.115525 -123.215066 275 364ft 9kts
08-Aug-18 19:02 44.115931 -123.216931 1 364ft 4kts
08-Aug-18 19:03 44.115931 -123.216931 1 364ft 4kts
08-Aug-18 19:04 44.119010 -123.216959 357 364ft 15kts
08-Aug-18 19:05 44.120760 -123.217007 358 364ft 6kts
08-Aug-18 19:06 44.121229 -123.217012 0 364ft 8kts
08-Aug-18 19:07 44.122125 -123.217040 1 364ft 1kts
08-Aug-18 19:08 44.122878 -123.217043 357 364ft 3kts
08-Aug-18 19:09 44.123595 -123.217066 359 364ft 10kts
08-Aug-18 19:10 44.124182 -123.217063 0 364ft 13kts
08-Aug-18 19:11 44.127800 -123.217121 359 364ft 11kts
08-Aug-18 19:12 44.130639 -123.217166 359 364ft 8kts
08-Aug-18 19:13 44.132779 -123.217197 359 364ft 6kts
08-Aug-18 19:14 44.134502 -123.217325 325 364ft 5kts
08-Aug-18 19:15 44.134628 -123.217889 262 364ft 0kts
08-Aug-18 19:16 44.134628 -123.217889 262 364ft 0kts
08-Aug-18 19:17 44.134628 -123.217889 262 364ft 0kts
08-Aug-18 19:18 44.134628 -123.217889 262 364ft 0kts
08-Aug-18 19:19 44.134628 -123.217889 262 364ft 0kts
08-Aug-18 19:20 44.134628 -123.217889 262 364ft 0kts
08-Aug-18 19:21 44.134628 -123.217889 262 364ft 0kts
08-Aug-18 19:22 44.134628 -123.217889 262 364ft 0kts
08-Aug-18 19:23 44.134628 -123.217889 262 364ft 0kts
08-Aug-18 19:24 44.134628 -123.217889 262 364ft 0kts
08-Aug-18 19:25 44.134628 -123.217889 262 364ft 0kts
08-Aug-18 19:26 44.134520 -123.218837 242 364ft 10kts
08-Aug-18 19:27 44.125609 -123.218654 182 567ft 78kts
08-Aug-18 19:28 44.101549 -123.216869 182 1378ft 93kts
08-Aug-18 19:29 44.075262 -123.215633 182 2070ft 95kts
08-Aug-18 19:30 44.047640 -123.214520 182 2349ft 104kts
08-Aug-18 19:31 44.037971 -123.227688 7 2343ft 117kts
08-Aug-18 19:32 44.064192 -123.207134 18 2349ft 119kts
08-Aug-18 19:33 44.094198 -123.205527 347 2349ft 116kts
08-Aug-18 19:34 44.126028 -123.212448 346 2349ft 117kts
08-Aug-18 19:35 44.158526 -123.219535 346 2349ft 119kts
08-Aug-18 19:36 44.191339 -123.226629 346 2348ft 119kts
08-Aug-18 19:37 44.223884 -123.233684 346 2347ft 118kts
08-Aug-18 19:38 44.254440 -123.240345 345 2521ft 110kts
08-Aug-18 19:39 44.285538 -123.247127 345 2519ft 114kts
08-Aug-18 19:40 44.316962 -123.252017 4 2517ft 116kts
08-Aug-18 19:41 44.348323 -123.242787 6 2518ft 115kts
08-Aug-18 19:42 44.379763 -123.233357 6 2517ft 115kts
08-Aug-18 19:43 44.410697 -123.224030 6 2516ft 113kts
08-Aug-18 19:44 44.440693 -123.215019 6 2516ft 111kts
08-Aug-18 19:45 44.464772 -123.207885 6 2515ft 110kts
08-Aug-18 19:46 44.494531 -123.199291 6 2514ft 108kts
08-Aug-18 19:47 44.524118 -123.190796 6 2475ft 112kts
08-Aug-18 19:48 44.550025 -123.200003 292 1969ft 112kts
08-Aug-18 19:49 44.559311 -123.241775 290 1465ft 112kts
08-Aug-18 19:50 44.553310 -123.278292 224 1164ft 106kts
08-Aug-18 19:51 44.526278 -123.286439 194 778ft 87kts
08-Aug-18 19:52 44.506407 -123.290331 195 350ft 66kts
08-Aug-18 19:53 44.495572 -123.292339 185 247ft 17kts
08-Aug-18 19:54 44.494660 -123.291056 4 247ft 3kts

Navigation Log

Ident Type
Flight plan parsing failed, navigation log unavailable